Terminal Aerodrome Forecast
Issued by NWS

Home | Current Version | Previous Version | Text Only | Print | Product List | Glossary On
Versions: 1 2 3 4 5 6 7 8 9 10 11 12 13 14 15 16 17
000
FTUS43 KSGF 250500
TAFBBG
TAF
KBBG 250520Z 2506/2606 12013KT P6SM VCSH SCT012 BKN100
      WS020/21045KT
      TEMPO 2506/2509 BKN012
     FM250900 14008G16KT P6SM VCSH BKN015 OVC050 WS020/21045KT
     FM251300 23012G20KT P6SM BKN050
     FM251600 26013G23KT P6SM SCT050
     FM260000 32007KT P6SM SKC=

USA.gov is the U.S. government's official web portal to all federal, state and local government web resources and services.